Terminal Aerodrome Forecast
Issued by NWS

Home | Current Version | Previous Version | Text Only | Print | Product List | Glossary On
Versions: 1 2 3 4 5 6 7 8 9 10 11 12 13 14 15 16 17 18 19 20 21 22 23 24 25 26 27 28 29 30
000
FTUS45 KGJT 070540
TAFEGE
TAF
KEGE 070540Z 0706/0806 03005KT P6SM VCTS SCT060CB BKN100
      TEMPO 0706/0708 VRB15G25KT P6SM -TSRA BKN060CB
     FM070800 VRB03KT P6SM VCSH SCT060 BKN200
     FM071800 28008G18KT P6SM VCTS SCT060CB BKN100
      TEMPO 0719/0723 VRB15G25KT TSRA BKN060CB
     FM080100 06005KT P6SM -SHRA VCTS SCT050CB OVC070
      AMD LTD TO CLD VIS AND WIND TIL 071300=

USA.gov is the U.S. government's official web portal to all federal, state and local government web resources and services.